Time;durP1;ratioP1;P1;durP2;ratioP2;P2;SDS_P1;SDS_P2;PMS_P1;PMS_P2;Temp;Humidity;BMP_temperature;BMP_pressure;BME280_temperature;BME280_humidity;BME280_pressure;Samples;Min_cycle;Max_cycle;Signal;HPM_P1;HPM_P2
2022/07/31 00:00:08;;;;;;;3.53;0.95;;;22.00;99.90;;;;;;5053002;28;20187;-82
2022/07/31 00:02:34;;;;;;;2.00;1.30;;;22.10;99.90;;;;;;5035375;28;20201;-84
2022/07/31 00:05:01;;;;;;;5.28;1.20;;;22.00;99.90;;;;;;5035608;28;20286;-83
2022/07/31 00:07:26;;;;;;;4.53;1.30;;;22.00;99.90;;;;;;5035935;28;20189;-84
2022/07/31 00:09:52;;;;;;;3.88;0.90;;;22.00;99.90;;;;;;5053587;28;20663;-83
2022/07/31 00:12:18;;;;;;;1.58;1.10;;;22.00;99.90;;;;;;5053915;28;20173;-83
2022/07/31 00:14:44;;;;;;;3.30;1.20;;;22.00;99.90;;;;;;5036070;28;20623;-83
2022/07/31 00:17:10;;;;;;;2.65;1.25;;;21.90;99.90;;;;;;5053680;28;20159;-82
2022/07/31 00:19:36;;;;;;;4.32;1.40;;;21.80;99.90;;;;;;5053253;28;20191;-83
2022/07/31 00:22:02;;;;;;;1.65;1.33;;;21.80;99.90;;;;;;5053177;28;20254;-83
2022/07/31 00:24:28;;;;;;;4.00;1.17;;;21.70;99.90;;;;;;5053995;28;20210;-84
2022/07/31 00:26:54;;;;;;;1.33;1.23;;;21.70;99.90;;;;;;5038706;28;20189;-82
2022/07/31 00:29:19;;;;;;;2.03;1.20;;;21.70;99.90;;;;;;5047510;28;20250;-82
2022/07/31 00:31:45;;;;;;;2.78;1.20;;;21.70;99.90;;;;;;5066447;28;20170;-82
2022/07/31 00:34:10;;;;;;;1.70;1.52;;;21.60;99.90;;;;;;5065518;28;20203;-81
2022/07/31 00:36:36;;;;;;;1.52;1.30;;;21.50;99.90;;;;;;5048097;28;20231;-83
2022/07/31 00:39:02;;;;;;;2.35;1.42;;;21.60;99.90;;;;;;5065924;28;20254;-82
2022/07/31 00:41:41;;;;;;;1.45;1.25;;;21.50;99.90;;;;;;5047387;28;20164;-81
2022/07/31 00:44:08;;;;;;;3.25;1.20;;;21.50;99.90;;;;;;5046051;28;20155;-80
2022/07/31 00:46:34;;;;;;;3.53;1.25;;;21.50;99.90;;;;;;5042484;28;20190;-82
2022/07/31 00:48:59;;;;;;;1.88;1.45;;;21.50;99.90;;;;;;5046370;28;20195;-82
2022/07/31 00:51:25;;;;;;;1.02;1.00;;;21.40;99.90;;;;;;5048254;28;20206;-80
2022/07/31 00:53:51;;;;;;;3.05;1.10;;;21.30;99.90;;;;;;5042325;28;20309;-81
2022/07/31 00:56:16;;;;;;;0.82;0.82;;;21.20;99.90;;;;;;5048834;28;20159;-83
2022/07/31 00:58:42;;;;;;;1.35;1.20;;;21.10;99.90;;;;;;5056469;28;20186;-82
2022/07/31 01:01:08;;;;;;;1.05;1.00;;;21.00;99.90;;;;;;5052328;28;20160;-81
2022/07/31 01:03:33;;;;;;;3.67;1.42;;;21.10;99.90;;;;;;5051888;28;20178;-82
2022/07/31 01:05:59;;;;;;;6.53;1.40;;;21.00;99.90;;;;;;5051977;28;20283;-82
2022/07/31 01:08:24;;;;;;;1.20;1.10;;;20.90;99.90;;;;;;5034473;28;20175;-82
2022/07/31 01:10:53;;;;;;;1.40;1.30;;;20.80;99.90;;;;;;5034680;28;20164;-84
2022/07/31 01:13:38;;;;;;;4.65;0.90;;;20.80;99.90;;;;;;5033919;28;20207;-83
2022/07/31 01:16:08;;;;;;;3.10;1.13;;;20.70;99.90;;;;;;5052123;28;20634;-81
2022/07/31 01:18:36;;;;;;;2.60;1.50;;;20.60;99.90;;;;;;5033537;28;20197;-83
2022/07/31 01:21:07;;;;;;;6.75;1.30;;;20.80;99.90;;;;;;5034288;28;20210;-81
2022/07/31 01:23:45;;;;;;;1.13;1.00;;;20.70;99.90;;;;;;5034338;28;20225;-81
2022/07/31 01:26:23;;;;;;;1.27;1.17;;;20.70;99.90;;;;;;5052462;28;20616;-83
2022/07/31 01:29:00;;;;;;;1.30;1.20;;;20.70;99.90;;;;;;5051981;28;20261;-82
2022/07/31 01:31:34;;;;;;;1.38;1.27;;;20.60;99.90;;;;;;5034381;28;20194;-83
2022/07/31 01:34:23;;;;;;;5.80;1.40;;;20.70;99.90;;;;;;5034232;28;20670;-83
2022/07/31 01:36:59;;;;;;;2.17;1.40;;;20.70;99.90;;;;;;5055682;28;20171;-83
2022/07/31 01:39:27;;;;;;;3.63;1.55;;;20.70;99.90;;;;;;5055673;28;20225;-84
2022/07/31 01:41:55;;;;;;;7.65;1.13;;;20.70;99.90;;;;;;5055771;28;20171;-84
2022/07/31 01:44:23;;;;;;;1.10;1.05;;;20.70;99.90;;;;;;5038259;28;20167;-85
2022/07/31 01:46:52;;;;;;;2.92;1.38;;;20.50;99.90;;;;;;5056047;28;20171;-84
2022/07/31 01:49:20;;;;;;;1.88;1.27;;;20.60;99.90;;;;;;5055857;28;20183;-82
2022/07/31 01:51:47;;;;;;;1.10;1.00;;;20.60;99.90;;;;;;5037882;28;20634;-84
2022/07/31 01:54:17;;;;;;;2.65;1.20;;;20.60;99.90;;;;;;5055573;28;20214;-84
2022/07/31 01:56:45;;;;;;;2.05;1.40;;;20.60;99.90;;;;;;5055641;28;20171;-84
2022/07/31 01:59:12;;;;;;;1.17;1.08;;;20.50;99.90;;;;;;5055611;28;20194;-85
2022/07/31 02:01:39;;;;;;;5.72;1.27;;;20.60;99.90;;;;;;5055378;28;20170;-82
2022/07/31 02:04:05;;;;;;;3.22;1.90;;;20.40;99.90;;;;;;5062097;28;20235;-82
2022/07/31 02:06:31;;;;;;;1.65;1.23;;;20.50;99.90;;;;;;5062789;28;20177;-82
2022/07/31 02:08:59;;;;;;;2.42;1.40;;;20.50;99.90;;;;;;5080475;28;20167;-83
2022/07/31 02:11:24;;;;;;;1.85;1.55;;;20.50;99.90;;;;;;5078695;28;20147;-84
2022/07/31 02:13:52;;;;;;;2.72;1.40;;;20.50;99.90;;;;;;5055752;28;20218;-84
2022/07/31 02:16:19;;;;;;;1.70;1.60;;;20.50;99.90;;;;;;5055619;28;20176;-83
2022/07/31 02:18:47;;;;;;;2.97;1.33;;;20.50;99.90;;;;;;5037250;28;20206;-82
2022/07/31 02:21:13;;;;;;;1.42;1.30;;;20.20;99.90;;;;;;5036961;28;20167;-81
2022/07/31 02:23:40;;;;;;;8.02;1.42;;;20.20;99.90;;;;;;5054692;28;20535;-81
2022/07/31 02:26:06;;;;;;;2.30;1.02;;;20.10;99.90;;;;;;5054623;28;20162;-83
2022/07/31 02:28:35;;;;;;;1.17;0.95;;;20.00;99.90;;;;;;5054843;28;20742;-82
2022/07/31 02:31:01;;;;;;;1.73;1.38;;;20.10;99.90;;;;;;5036929;28;20169;-82
2022/07/31 02:33:27;;;;;;;2.83;1.25;;;20.30;99.90;;;;;;5035950;28;20211;-81
2022/07/31 02:35:55;;;;;;;3.75;1.38;;;20.30;99.90;;;;;;5054608;28;20160;-84
2022/07/31 02:38:25;;;;;;;2.58;1.30;;;20.00;99.90;;;;;;5054293;28;20174;-81
2022/07/31 02:40:54;;;;;;;10.27;1.83;;;20.00;99.90;;;;;;5036263;28;20171;-83
2022/07/31 02:43:20;;;;;;;2.10;1.27;;;20.20;99.90;;;;;;5036354;28;20274;-81
2022/07/31 02:45:47;;;;;;;1.88;1.60;;;20.30;99.90;;;;;;5054044;28;20164;-84
2022/07/31 02:48:12;;;;;;;1.00;1.00;;;20.30;99.90;;;;;;5037631;28;20185;-82
2022/07/31 02:50:38;;;;;;;1.20;1.10;;;20.20;99.90;;;;;;5054800;28;20254;-80
2022/07/31 02:53:05;;;;;;;6.30;1.58;;;20.10;99.90;;;;;;5037248;28;20683;-83
2022/07/31 02:55:31;;;;;;;1.60;1.50;;;20.20;99.90;;;;;;5054620;28;20650;-83
2022/07/31 02:57:57;;;;;;;1.48;1.38;;;20.40;99.90;;;;;;5036811;28;20174;-81
2022/07/31 03:00:25;;;;;;;1.00;1.00;;;20.30;99.90;;;;;;5054205;28;20183;-81
2022/07/31 03:02:53;;;;;;;3.08;1.35;;;20.30;99.90;;;;;;5036687;28;20175;-81
2022/07/31 03:05:19;;;;;;;2.65;1.30;;;20.20;99.90;;;;;;5035633;28;20182;-83
2022/07/31 03:07:46;;;;;;;1.48;1.13;;;20.10;99.90;;;;;;5036141;28;20209;-83
2022/07/31 03:10:11;;;;;;;1.73;1.27;;;20.00;99.90;;;;;;5053853;28;20651;-82
2022/07/31 03:12:43;;;;;;;3.00;1.45;;;20.10;99.90;;;;;;5035953;28;20216;-82
2022/07/31 03:15:13;;;;;;;3.10;1.48;;;20.20;99.90;;;;;;5053964;28;20173;-82
2022/07/31 03:17:40;;;;;;;1.13;1.10;;;20.20;99.90;;;;;;5053990;28;20257;-81
2022/07/31 03:20:07;;;;;;;1.25;1.05;;;20.00;99.90;;;;;;5035731;28;20210;-81
2022/07/31 03:22:33;;;;;;;1.33;1.23;;;19.90;99.90;;;;;;5053813;28;20172;-82
2022/07/31 03:25:01;;;;;;;2.85;1.60;;;20.00;99.90;;;;;;5036063;28;20240;-83
2022/07/31 03:27:27;;;;;;;1.90;1.08;;;20.10;99.90;;;;;;5053799;28;20167;-83
2022/07/31 03:29:53;;;;;;;1.73;1.20;;;20.10;99.90;;;;;;5036015;28;20191;-83
2022/07/31 03:32:19;;;;;;;2.33;1.52;;;20.20;99.90;;;;;;5035696;28;20168;-84
2022/07/31 03:34:45;;;;;;;5.03;1.10;;;20.20;99.90;;;;;;5053461;28;20179;-84
2022/07/31 03:37:11;;;;;;;1.88;1.60;;;20.20;99.90;;;;;;5036105;28;20171;-82
2022/07/31 03:39:37;;;;;;;4.50;1.40;;;20.20;99.90;;;;;;5053391;28;20191;-81
2022/07/31 03:42:03;;;;;;;4.38;1.38;;;20.10;99.90;;;;;;5053642;28;20167;-84
2022/07/31 03:44:31;;;;;;;8.82;1.70;;;20.10;99.90;;;;;;5035701;28;20171;-84
2022/07/31 03:46:58;;;;;;;2.17;1.35;;;20.00;99.90;;;;;;5035659;28;20619;-82
2022/07/31 03:49:25;;;;;;;2.95;1.55;;;19.90;99.90;;;;;;5035480;28;20187;-85
2022/07/31 03:51:50;;;;;;;4.90;1.20;;;20.00;99.90;;;;;;5035502;28;20222;-83
2022/07/31 03:54:16;;;;;;;3.42;1.08;;;20.10;99.90;;;;;;5035661;28;20298;-83
2022/07/31 03:56:46;;;;;;;1.67;1.58;;;20.00;99.90;;;;;;5052527;28;20205;-83
2022/07/31 03:59:14;;;;;;;1.50;1.40;;;20.00;99.90;;;;;;5053398;28;20241;-83
2022/07/31 04:01:40;;;;;;;1.77;1.42;;;19.90;99.90;;;;;;5052856;28;20167;-83
2022/07/31 04:04:06;;;;;;;4.15;1.33;;;19.90;99.90;;;;;;5052923;28;20183;-83
2022/07/31 04:06:32;;;;;;;1.50;1.40;;;19.90;99.90;;;;;;5035753;28;20167;-84
2022/07/31 04:09:00;;;;;;;3.30;1.50;;;20.00;99.90;;;;;;5053313;28;20325;-84
2022/07/31 04:11:26;;;;;;;3.22;1.33;;;20.00;99.90;;;;;;5035421;28;20247;-84
2022/07/31 04:13:52;;;;;;;4.18;1.48;;;20.00;99.90;;;;;;5053019;28;20203;-84
2022/07/31 04:16:17;;;;;;;6.53;1.63;;;20.00;99.90;;;;;;5053128;28;20170;-84
2022/07/31 04:18:43;;;;;;;3.05;1.85;;;20.00;99.90;;;;;;5035034;28;20194;-84
2022/07/31 04:21:09;;;;;;;4.47;1.88;;;19.90;99.90;;;;;;5053333;28;20175;-84
2022/07/31 04:23:34;;;;;;;3.72;1.98;;;19.90;99.90;;;;;;5053050;28;20175;-85
2022/07/31 04:26:00;;;;;;;1.67;1.48;;;19.80;99.90;;;;;;5035509;28;20646;-84
2022/07/31 04:28:26;;;;;;;2.13;1.35;;;19.90;99.90;;;;;;5035049;28;20167;-85
2022/07/31 04:30:51;;;;;;;3.92;1.63;;;19.90;99.90;;;;;;5053133;28;20167;-83
2022/07/31 04:33:17;;;;;;;5.75;1.70;;;20.00;99.90;;;;;;5053235;28;20237;-83
2022/07/31 04:35:43;;;;;;;6.97;1.40;;;19.90;99.90;;;;;;5034741;28;20175;-83
2022/07/31 04:38:10;;;;;;;1.73;1.38;;;20.10;99.90;;;;;;5052821;28;20228;-84
2022/07/31 04:40:36;;;;;;;2.28;1.40;;;20.10;99.90;;;;;;5052402;28;20156;-84
2022/07/31 04:43:02;;;;;;;6.63;1.42;;;20.00;99.90;;;;;;5052822;28;20186;-85
2022/07/31 04:45:27;;;;;;;2.97;1.40;;;19.80;99.90;;;;;;5052563;28;20285;-85
2022/07/31 04:47:53;;;;;;;2.42;1.60;;;19.80;99.90;;;;;;5052688;28;20167;-84
2022/07/31 04:50:19;;;;;;;6.72;1.33;;;19.70;99.90;;;;;;5034433;28;20190;-83
2022/07/31 04:52:44;;;;;;;4.10;1.40;;;19.90;99.90;;;;;;5035211;28;20195;-85
2022/07/31 04:55:10;;;;;;;1.77;1.65;;;20.10;99.90;;;;;;5035195;28;20175;-84
2022/07/31 04:57:36;;;;;;;5.95;1.92;;;20.20;99.90;;;;;;5052625;28;20696;-84
2022/07/31 05:00:03;;;;;;;2.53;1.63;;;20.20;99.90;;;;;;5034748;28;20213;-84
2022/07/31 05:02:29;;;;;;;6.03;1.60;;;20.00;99.90;;;;;;5052755;28;20653;-85
2022/07/31 05:04:54;;;;;;;4.68;1.33;;;20.00;99.90;;;;;;5034954;28;20282;-84
2022/07/31 05:07:22;;;;;;;2.08;1.85;;;20.10;99.90;;;;;;5052545;28;20167;-85
2022/07/31 05:09:48;;;;;;;1.98;1.77;;;20.20;99.90;;;;;;5038699;28;20245;-84
2022/07/31 05:12:13;;;;;;;2.20;1.90;;;20.30;99.90;;;;;;5038723;28;20256;-83
2022/07/31 05:14:40;;;;;;;4.93;2.30;;;20.40;99.90;;;;;;5039036;28;20230;-83
2022/07/31 05:17:05;;;;;;;5.85;1.90;;;20.30;99.90;;;;;;5056678;28;20170;-85
2022/07/31 05:19:31;;;;;;;4.18;2.13;;;20.30;99.90;;;;;;5038253;28;20187;-84
2022/07/31 05:21:58;;;;;;;2.58;2.17;;;20.20;99.90;;;;;;5038358;28;20167;-82
2022/07/31 05:24:24;;;;;;;4.82;1.80;;;20.20;99.90;;;;;;5038550;28;20643;-84
2022/07/31 05:26:50;;;;;;;2.58;2.10;;;20.20;99.90;;;;;;5056514;28;20183;-84
2022/07/31 05:29:15;;;;;;;3.78;1.98;;;20.30;99.90;;;;;;5056248;28;20237;-83
2022/07/31 05:31:41;;;;;;;7.90;2.40;;;20.40;99.90;;;;;;5055800;28;20175;-83
2022/07/31 05:34:07;;;;;;;5.13;2.50;;;20.40;99.90;;;;;;5037961;28;20238;-82
2022/07/31 05:36:32;;;;;;;6.55;2.45;;;20.30;99.90;;;;;;5037873;28;20185;-83
2022/07/31 05:38:58;;;;;;;2.45;2.22;;;20.30;99.90;;;;;;5055092;28;20190;-81
2022/07/31 05:41:24;;;;;;;6.40;2.25;;;20.30;99.90;;;;;;5055655;28;20170;-81
2022/07/31 05:43:49;;;;;;;6.00;2.28;;;20.50;99.90;;;;;;5037590;28;20167;-83
2022/07/31 05:46:16;;;;;;;5.78;3.05;;;20.40;99.90;;;;;;5037356;28;20163;-83
2022/07/31 05:48:42;;;;;;;3.05;2.47;;;20.40;99.90;;;;;;5037086;28;20191;-81
2022/07/31 05:51:09;;;;;;;4.05;2.15;;;20.50;99.90;;;;;;5037422;28;20166;-81
2022/07/31 05:53:36;;;;;;;7.53;2.50;;;20.60;99.90;;;;;;5055536;28;20223;-81
2022/07/31 05:56:03;;;;;;;5.63;2.97;;;20.70;99.90;;;;;;5055327;28;20523;-82
2022/07/31 05:58:28;;;;;;;3.40;2.70;;;20.80;99.90;;;;;;5055110;28;20892;-87
2022/07/31 06:00:54;;;;;;;7.18;2.45;;;20.90;99.90;;;;;;5055784;28;20193;-84
2022/07/31 06:03:26;;;;;;;6.32;2.60;;;21.00;99.90;;;;;;5055595;28;20175;-84
2022/07/31 06:05:52;;;;;;;2.92;2.65;;;21.10;99.90;;;;;;5055694;28;20616;-82
2022/07/31 06:08:18;;;;;;;6.35;2.40;;;21.20;99.90;;;;;;5038633;28;20167;-87
2022/07/31 06:10:44;;;;;;;3.35;2.10;;;21.40;99.90;;;;;;5038909;28;20663;-85
2022/07/31 06:13:10;;;;;;;3.75;2.60;;;21.40;99.90;;;;;;5038971;28;20203;-86
2022/07/31 06:15:36;;;;;;;3.80;2.78;;;21.50;99.90;;;;;;5038453;28;20531;-87
2022/07/31 06:18:02;;;;;;;3.45;2.50;;;21.60;99.90;;;;;;5038340;28;20171;-87
2022/07/31 06:20:28;;;;;;;4.70;2.55;;;21.60;99.90;;;;;;5037664;28;20194;-87
2022/07/31 06:22:54;;;;;;;5.93;2.97;;;21.60;99.90;;;;;;5038848;28;20167;-87
2022/07/31 06:25:20;;;;;;;4.45;2.40;;;21.50;99.90;;;;;;5038731;28;20194;-88
2022/07/31 06:27:46;;;;;;;6.30;2.42;;;21.40;99.90;;;;;;5056366;28;20159;-88
2022/07/31 06:30:12;;;;;;;4.53;3.03;;;21.80;99.90;;;;;;5037620;28;20190;-86
2022/07/31 06:32:38;;;;;;;5.97;2.60;;;22.10;99.90;;;;;;5037775;28;20171;-86
2022/07/31 06:35:05;;;;;;;4.88;2.90;;;22.10;99.90;;;;;;5037854;28;20522;-86
2022/07/31 06:37:31;;;;;;;3.10;2.53;;;22.10;99.90;;;;;;5038191;28;20206;-89
2022/07/31 06:39:57;;;;;;;6.32;2.90;;;22.20;99.90;;;;;;5038025;28;20214;-88
2022/07/31 06:42:24;;;;;;;5.78;3.42;;;22.20;99.90;;;;;;5037283;28;20638;-84
2022/07/31 06:44:51;;;;;;;9.27;2.65;;;22.40;99.90;;;;;;5036797;28;20171;-84
2022/07/31 06:47:18;;;;;;;3.60;2.83;;;22.40;99.90;;;;;;5037258;28;20202;-85
2022/07/31 06:49:43;;;;;;;5.78;2.97;;;22.50;99.90;;;;;;5054772;28;20191;-85
2022/07/31 06:52:09;;;;;;;3.75;2.55;;;22.70;99.90;;;;;;5037105;28;20536;-84
2022/07/31 06:54:36;;;;;;;5.53;2.50;;;22.80;99.90;;;;;;5036327;28;20272;-84
2022/07/31 06:57:02;;;;;;;3.70;2.67;;;22.80;99.90;;;;;;5036898;28;20163;-84
2022/07/31 06:59:27;;;;;;;5.28;3.15;;;22.90;99.90;;;;;;5036985;28;20191;-85
2022/07/31 07:01:53;;;;;;;7.15;2.63;;;22.90;99.90;;;;;;5037057;28;20167;-85
2022/07/31 07:04:19;;;;;;;7.47;2.78;;;22.90;99.90;;;;;;5037192;28;20175;-86
2022/07/31 07:06:44;;;;;;;3.13;2.63;;;23.00;99.90;;;;;;5054289;28;20244;-85
2022/07/31 07:09:10;;;;;;;4.88;2.90;;;23.10;99.90;;;;;;5036919;28;20288;-84
2022/07/31 07:11:35;;;;;;;7.20;2.72;;;23.20;99.90;;;;;;5037126;28;20171;-85
2022/07/31 07:14:01;;;;;;;13.60;2.83;;;23.10;99.90;;;;;;5036557;28;20218;-85
2022/07/31 07:16:27;;;;;;;3.97;2.58;;;23.00;99.90;;;;;;5036957;28;20202;-85
2022/07/31 07:18:52;;;;;;;2.92;2.58;;;23.00;99.90;;;;;;5036752;28;20575;-86
2022/07/31 07:21:18;;;;;;;3.97;2.55;;;23.10;99.90;;;;;;5036551;28;20262;-86
2022/07/31 07:23:43;;;;;;;6.63;2.47;;;22.80;99.90;;;;;;5054540;28;20175;-85
2022/07/31 07:26:09;;;;;;;5.30;3.17;;;22.50;99.90;;;;;;5036696;28;20171;-85
2022/07/31 07:28:35;;;;;;;3.53;2.72;;;22.30;99.90;;;;;;5036125;28;20187;-84
2022/07/31 07:31:03;;;;;;;5.10;2.72;;;22.60;99.90;;;;;;5036315;28;20167;-85
2022/07/31 07:33:30;;;;;;;6.35;2.70;;;22.80;99.90;;;;;;5036355;28;20225;-85
2022/07/31 07:35:55;;;;;;;13.18;8.32;;;23.60;99.90;;;;;;5036306;28;20214;-85
2022/07/31 07:38:21;;;;;;;5.22;4.70;;;24.40;99.90;;;;;;5036454;28;20175;-85
2022/07/31 07:40:47;;;;;;;5.15;3.83;;;24.10;99.90;;;;;;5036231;28;20592;-85
2022/07/31 07:43:12;;;;;;;3.15;2.58;;;24.10;99.90;;;;;;5054251;28;20186;-84
2022/07/31 07:45:38;;;;;;;2.80;2.58;;;24.10;99.90;;;;;;5036535;28;20174;-86
2022/07/31 07:48:05;;;;;;;4.80;2.45;;;24.20;99.90;;;;;;5036691;28;20182;-86
2022/07/31 07:50:31;;;;;;;5.45;2.45;;;24.20;99.90;;;;;;5054051;28;20198;-87
2022/07/31 07:52:56;;;;;;;4.60;2.38;;;24.10;99.90;;;;;;5036707;28;20203;-86
2022/07/31 07:55:22;;;;;;;2.63;2.42;;;24.10;99.90;;;;;;5036638;28;20523;-86
2022/07/31 07:57:48;;;;;;;2.50;2.30;;;23.90;99.90;;;;;;5054196;28;20171;-86
2022/07/31 08:00:15;;;;;;;3.65;2.38;;;23.70;99.90;;;;;;5035994;28;20294;-87
2022/07/31 08:02:41;;;;;;;2.70;2.28;;;23.90;99.90;;;;;;5036059;28;20262;-88
2022/07/31 08:05:07;;;;;;;2.50;2.30;;;24.00;99.90;;;;;;5036176;28;20658;-86
2022/07/31 08:07:36;;;;;;;3.40;2.13;;;23.60;99.90;;;;;;5035524;28;20167;-86
2022/07/31 08:10:02;;;;;;;6.18;2.40;;;23.70;99.90;;;;;;5036092;28;20195;-87
2022/07/31 08:12:28;;;;;;;1.98;1.83;;;24.00;99.90;;;;;;5036569;28;20162;-86
2022/07/31 08:14:54;;;;;;;5.47;2.25;;;24.30;99.90;;;;;;5036837;28;20262;-86
2022/07/31 08:17:20;;;;;;;3.35;2.40;;;24.70;99.90;;;;;;5036121;28;20635;-85
2022/07/31 08:19:45;;;;;;;4.22;2.17;;;24.90;99.90;;;;;;5036069;28;20195;-86
2022/07/31 08:22:12;;;;;;;1.70;1.60;;;25.20;99.90;;;;;;5035572;28;20164;-85
2022/07/31 08:24:38;;;;;;;8.13;2.22;;;24.90;99.90;;;;;;5035863;28;20170;-86
2022/07/31 08:29:49;;;;;;;3.70;2.38;;;24.80;99.90;;;;;;5053450;28;20232;-85
2022/07/31 08:32:14;;;;;;;2.33;2.13;;;24.70;99.90;;;;;;5035505;28;20175;-85
2022/07/31 08:34:40;;;;;;;3.30;2.45;;;24.80;99.90;;;;;;5035600;28;20214;-86
2022/07/31 08:37:06;;;;;;;4.50;2.50;;;25.20;99.90;;;;;;5036391;28;20163;-85
2022/07/31 08:39:36;;;;;;;8.85;3.15;;;25.30;99.90;;;;;;5035865;28;20186;-86
2022/07/31 08:42:09;;;;;;;4.03;2.53;;;25.70;99.90;;;;;;5036573;28;20163;-88
2022/07/31 08:44:39;;;;;;;4.45;2.30;;;26.20;99.90;;;;;;5036127;28;20167;-87
2022/07/31 08:47:13;;;;;;;5.13;2.15;;;26.30;99.90;;;;;;5054479;28;20171;-87
2022/07/31 08:49:41;;;;;;;2.75;2.50;;;26.30;99.90;;;;;;5036309;28;20183;-85
2022/07/31 08:52:10;;;;;;;7.78;2.65;;;26.20;99.90;;;;;;5035997;28;20631;-86
2022/07/31 08:54:36;;;;;;;2.95;2.70;;;25.90;99.90;;;;;;5035919;28;20203;-86
2022/07/31 08:57:03;;;;;;;3.65;2.50;;;25.80;99.90;;;;;;5036154;28;20221;-86
2022/07/31 08:59:29;;;;;;;5.45;3.08;;;25.90;99.90;;;;;;5035185;28;20218;-86
2022/07/31 09:01:55;;;;;;;3.42;2.75;;;26.00;99.90;;;;;;5035261;28;20167;-86
2022/07/31 09:04:22;;;;;;;6.90;2.90;;;26.10;99.90;;;;;;5053027;28;20183;-84
2022/07/31 09:06:48;;;;;;;3.80;2.80;;;26.40;99.90;;;;;;5052714;28;20164;-83
2022/07/31 09:09:16;;;;;;;3.28;2.88;;;26.50;99.90;;;;;;5034914;28;20295;-84
2022/07/31 09:11:49;;;;;;;5.45;3.17;;;26.60;99.90;;;;;;5034945;28;20611;-84
2022/07/31 09:14:33;;;;;;;3.30;3.00;;;26.30;99.90;;;;;;5034575;28;20675;-84
2022/07/31 09:16:59;;;;;;;3.40;2.80;;;26.00;99.90;;;;;;5034857;28;20261;-84
2022/07/31 09:19:39;;;;;;;9.75;3.05;;;26.10;99.90;;;;;;5034908;28;20191;-84
2022/07/31 09:22:05;;;;;;;2.72;2.53;;;26.10;99.90;;;;;;5034984;28;20773;-85
2022/07/31 09:24:33;;;;;;;7.95;3.85;;;26.40;99.90;;;;;;5034796;28;20182;-84
2022/07/31 09:27:04;;;;;;;3.55;3.28;;;26.60;99.90;;;;;;5034418;28;20167;-86
2022/07/31 09:29:40;;;;;;;3.50;3.20;;;27.30;99.90;;;;;;5034712;28;20187;-83
2022/07/31 09:32:17;;;;;;;3.35;3.05;;;27.40;99.90;;;;;;5051622;28;20597;-82
2022/07/31 09:34:44;;;;;;;6.75;3.25;;;27.40;99.90;;;;;;5032900;28;20206;-83
2022/07/31 09:37:17;;;;;;;4.63;3.45;;;27.20;99.90;;;;;;5050003;28;20174;-83
2022/07/31 09:39:54;;;;;;;7.57;4.15;;;27.10;99.90;;;;;;5032878;28;20689;-82
2022/07/31 09:42:21;;;;;;;3.65;3.35;;;27.10;99.90;;;;;;5051322;28;20171;-83
2022/07/31 09:44:48;;;;;;;4.53;3.60;;;27.20;99.90;;;;;;5035162;28;20315;-83
2022/07/31 09:47:31;;;;;;;10.27;3.72;;;27.20;99.90;;;;;;5034086;28;20174;-82
2022/07/31 09:49:59;;;;;;;3.88;3.55;;;26.90;99.90;;;;;;5051866;28;20191;-87
2022/07/31 09:52:27;;;;;;;4.32;3.45;;;26.80;99.90;;;;;;5034797;28;20258;-86
2022/07/31 09:55:02;;;;;;;4.43;3.20;;;26.90;99.90;;;;;;5034877;28;20211;-86
2022/07/31 09:57:28;;;;;;;4.45;3.47;;;26.60;99.90;;;;;;5038563;28;20231;-88
2022/07/31 09:59:54;;;;;;;5.40;3.67;;;26.80;99.90;;;;;;5056082;28;20194;-86
2022/07/31 10:02:20;;;;;;;3.28;3.05;;;27.10;99.90;;;;;;5056524;28;20221;-86
2022/07/31 10:04:49;;;;;;;10.60;3.03;;;27.50;99.90;;;;;;5038544;28;20241;-86
2022/07/31 10:07:16;;;;;;;2.95;2.75;;;28.00;99.90;;;;;;5038542;28;20225;-86
2022/07/31 10:09:43;;;;;;;12.23;3.08;;;27.70;99.90;;;;;;5038466;28;20191;-86
2022/07/31 10:12:13;;;;;;;3.42;3.13;;;28.10;99.90;;;;;;5038480;28;20171;-87
2022/07/31 10:14:42;;;;;;;4.93;3.20;;;28.20;99.90;;;;;;5055782;28;20202;-86
2022/07/31 10:17:09;;;;;;;3.15;2.95;;;28.10;99.90;;;;;;5038238;28;20254;-84
2022/07/31 10:19:37;;;;;;;4.00;3.05;;;27.70;99.90;;;;;;5055927;28;20201;-89
2022/07/31 10:22:04;;;;;;;5.38;3.15;;;27.40;99.90;;;;;;5038481;28;20927;-86
2022/07/31 10:24:32;;;;;;;4.20;2.70;;;27.40;99.90;;;;;;5038235;28;20650;-87
2022/07/31 10:26:58;;;;;;;3.35;3.05;;;27.70;99.90;;;;;;5038576;28;20171;-86
2022/07/31 10:29:25;;;;;;;5.82;3.08;;;27.20;99.90;;;;;;5038515;28;20244;-89
2022/07/31 10:31:51;;;;;;;4.53;3.40;;;27.20;99.90;;;;;;5038573;28;20281;-87
2022/07/31 10:34:19;;;;;;;3.55;2.80;;;27.00;99.90;;;;;;5038694;28;20230;-91
2022/07/31 10:36:47;;;;;;;5.93;2.85;;;26.80;99.90;;;;;;5038265;28;20175;-92
2022/07/31 10:39:18;;;;;;;3.10;2.65;;;26.60;99.90;;;;;;5055831;28;20197;-88
2022/07/31 10:42:05;;;;;;;3.45;2.30;;;26.30;99.90;;;;;;5037515;28;20168;-89
2022/07/31 10:44:49;;;;;;;3.45;2.63;;;26.50;99.90;;;;;;5039270;28;20179;-90
2022/07/31 10:47:16;;;;;;;3.33;2.45;;;26.80;99.90;;;;;;5038013;28;20171;-87
2022/07/31 10:49:48;;;;;;;4.15;2.70;;;27.10;99.90;;;;;;5037852;28;20281;-90
2022/07/31 10:52:35;;;;;;;3.17;2.42;;;27.30;99.90;;;;;;5038101;28;20167;-91
2022/07/31 10:55:12;;;;;;;3.10;2.83;;;27.20;99.90;;;;;;5038099;28;20187;-87
2022/07/31 10:57:38;;;;;;;4.00;2.72;;;27.20;99.90;;;;;;5037667;28;20167;-86
2022/07/31 11:00:30;;;;;;;2.55;2.30;;;27.50;99.90;;;;;;5038185;28;20191;-89
2022/07/31 11:02:56;;;;;;;5.78;3.08;;;27.60;99.90;;;;;;5050821;28;20188;-84
2022/07/31 11:05:22;;;;;;;4.30;3.10;;;27.50;99.90;;;;;;5036303;28;20245;-92
2022/07/31 11:08:00;;;;;;;3.97;2.08;;;27.70;99.90;;;;;;5036690;28;20171;-87
2022/07/31 11:10:26;;;;;;;4.03;2.72;;;27.50;99.90;;;;;;5036931;28;20650;-87
2022/07/31 11:13:06;;;;;;;3.83;2.67;;;27.20;99.90;;;;;;5036346;28;20202;-81
2022/07/31 11:15:33;;;;;;;4.90;2.10;;;26.70;99.90;;;;;;5035317;28;20202;-85
2022/07/31 11:18:09;;;;;;;3.10;1.88;;;26.60;99.90;;;;;;5052444;28;20165;-82
2022/07/31 11:20:35;;;;;;;3.55;2.20;;;26.70;99.90;;;;;;5036751;28;20205;-86
2022/07/31 11:23:03;;;;;;;14.77;2.85;;;26.80;99.90;;;;;;5037334;28;20633;-86
2022/07/31 11:25:33;;;;;;;5.35;2.33;;;26.80;99.90;;;;;;5037666;28;20258;-84
2022/07/31 11:28:13;;;;;;;7.93;3.33;;;26.80;99.90;;;;;;5036947;28;20178;-83
2022/07/31 11:30:57;;;;;;;4.18;2.00;;;26.70;99.90;;;;;;5036874;28;20216;-83
2022/07/31 11:33:43;;;;;;;2.42;1.55;;;26.90;99.90;;;;;;5054133;28;20218;-85
2022/07/31 11:36:18;;;;;;;12.20;3.95;;;27.10;99.90;;;;;;5054578;28;20175;-82
2022/07/31 11:38:46;;;;;;;4.72;1.85;;;27.30;99.90;;;;;;5054199;28;20270;-83
2022/07/31 11:41:13;;;;;;;9.88;2.60;;;27.30;99.90;;;;;;5054210;28;20175;-87
2022/07/31 11:43:50;;;;;;;2.80;2.00;;;27.30;99.90;;;;;;5036669;28;20741;-84
2022/07/31 11:46:26;;;;;;;2.63;2.42;;;27.20;99.90;;;;;;5054570;28;20633;-83
2022/07/31 11:48:52;;;;;;;3.20;2.05;;;27.20;99.90;;;;;;5037183;28;20627;-88
2022/07/31 11:51:18;;;;;;;4.75;2.97;;;27.10;99.90;;;;;;5036723;28;20175;-85
2022/07/31 11:53:45;;;;;;;7.97;3.35;;;27.40;99.90;;;;;;5036104;28;20265;-82
2022/07/31 11:56:11;;;;;;;2.40;2.10;;;27.80;99.90;;;;;;5053961;28;20187;-86
2022/07/31 11:58:40;;;;;;;5.13;2.10;;;27.70;99.90;;;;;;5045778;28;20237;-82
2022/07/31 12:01:06;;;;;;;1.55;1.45;;;27.60;99.90;;;;;;5046975;28;20174;-82
2022/07/31 12:03:35;;;;;;;4.72;2.00;;;27.50;99.90;;;;;;5063360;28;20166;-83
2022/07/31 12:06:02;;;;;;;5.03;2.00;;;27.50;99.90;;;;;;5049695;28;20186;-82
2022/07/31 12:08:30;;;;;;;2.42;1.90;;;27.20;99.90;;;;;;5069164;28;20159;-82
2022/07/31 12:10:58;;;;;;;2.35;1.90;;;27.30;99.90;;;;;;5051845;28;20278;-82
2022/07/31 12:13:25;;;;;;;1.65;1.55;;;27.60;99.90;;;;;;5069403;28;20206;-82
2022/07/31 12:16:04;;;;;;;2.90;1.60;;;27.20;99.90;;;;;;5070087;28;20173;-83
2022/07/31 12:18:44;;;;;;;1.60;1.50;;;27.00;99.90;;;;;;5052754;28;20231;-87
2022/07/31 12:21:10;;;;;;;4.43;2.20;;;27.10;99.90;;;;;;5076069;28;20159;-88
2022/07/31 12:23:50;;;;;;;5.70;1.92;;;27.30;99.90;;;;;;5074352;28;20172;-84
2022/07/31 12:26:30;;;;;;;1.90;1.40;;;27.20;99.90;;;;;;5056573;28;20175;-87
2022/07/31 12:29:06;;;;;;;3.33;2.60;;;27.50;99.90;;;;;;5056515;28;20199;-86
2022/07/31 12:31:52;;;;;;;4.82;2.63;;;27.80;99.90;;;;;;5074715;28;20810;-84
2022/07/31 12:34:34;;;;;;;3.05;1.90;;;27.90;99.90;;;;;;5056767;28;20206;-85
2022/07/31 12:37:11;;;;;;;5.03;2.10;;;28.00;99.90;;;;;;5054881;28;20163;-84
2022/07/31 12:39:49;;;;;;;1.98;1.45;;;27.60;99.90;;;;;;5036066;28;20864;-87
2022/07/31 12:42:24;;;;;;;3.05;2.00;;;27.70;99.90;;;;;;5036099;28;20189;-86
2022/07/31 12:44:52;;;;;;;5.82;2.70;;;27.70;99.90;;;;;;5035534;28;20319;-87
2022/07/31 12:47:28;;;;;;;1.27;1.20;;;27.80;99.90;;;;;;5053183;28;20159;-84
2022/07/31 12:49:55;;;;;;;1.60;1.48;;;27.80;99.90;;;;;;5053135;28;20187;-86
2022/07/31 12:52:21;;;;;;;1.30;1.20;;;27.70;99.90;;;;;;5053115;28;20179;-87